Time;durP1;ratioP1;P1;durP2;ratioP2;P2;SDS_P1;SDS_P2;PMS_P1;PMS_P2;Temp;Humidity;BMP_temperature;BMP_pressure;BME280_temperature;BME280_humidity;BME280_pressure;Samples;Min_cycle;Max_cycle;Signal;HPM_P1;HPM_P2
2022/04/10 00:01:11;;;;;;;6.22;4.45;;;;;;;;;;5070482;28;20213;-83
2022/04/10 00:03:38;;;;;;;4.85;3.72;;;;;;;;;;5076725;28;20187;-84
2022/04/10 00:06:04;;;;;;;9.27;5.20;;;;;;;;;;5056325;28;20287;-83
2022/04/10 00:08:30;;;;;;;5.70;4.60;;;;;;;;;;5051882;28;20214;-84
2022/04/10 00:10:56;;;;;;;7.17;4.50;;;;;;;;;;5068666;28;20450;-84
2022/04/10 00:13:22;;;;;;;3.93;3.83;;;;;;;;;;5059013;28;20801;-85
2022/04/10 00:15:48;;;;;;;5.65;4.20;;;;;;;;;;5062467;28;20854;-84
2022/04/10 00:18:14;;;;;;;3.83;3.63;;;;;;;;;;5065328;28;20209;-84
2022/04/10 00:20:40;;;;;;;8.47;4.60;;;;;;;;;;5070267;28;20656;-84
2022/04/10 00:23:06;;;;;;;4.63;4.15;;;;;;;;;;5061037;28;20534;-84
2022/04/10 00:25:33;;;;;;;4.75;4.40;;;;;;;;;;5070215;28;20181;-84
2022/04/10 00:27:59;;;;;;;6.03;4.47;;;;;;;;;;5064033;28;20213;-84
2022/04/10 00:30:25;;;;;;;6.85;4.63;;;;;;;;;;5074089;28;20171;-84
2022/04/10 00:32:52;;;;;;;6.63;4.47;;;;;;;;;;5067667;28;20220;-83
2022/04/10 00:35:18;;;;;;;5.30;4.78;;;;;;;;;;5067069;28;20698;-83
2022/04/10 00:37:44;;;;;;;6.97;4.95;;;;;;;;;;5071780;28;20186;-84
2022/04/10 00:40:10;;;;;;;5.23;4.57;;;;;;;;;;5077270;28;20183;-84
2022/04/10 00:42:37;;;;;;;6.07;4.47;;;;;;;;;;5078880;28;20641;-84
2022/04/10 00:45:05;;;;;;;5.75;4.43;;;;;;;;;;5078695;28;20177;-84
2022/04/10 00:47:31;;;;;;;6.45;5.00;;;;;;;;;;5072395;28;20173;-84
2022/04/10 00:49:58;;;;;;;6.75;4.22;;;;;;;;;;5049910;28;20210;-84
2022/04/10 00:52:26;;;;;;;5.15;4.70;;;;;;;;;;5063687;28;20209;-85
2022/04/10 00:54:52;;;;;;;6.10;5.60;;;;;;;;;;5079933;28;20735;-84
2022/04/10 00:57:18;;;;;;;8.98;4.93;;;;;;;;;;5083495;28;20655;-84
2022/04/10 00:59:44;;;;;;;4.68;4.32;;;;;;;;;;5065375;28;20189;-85
2022/04/10 01:02:13;;;;;;;4.95;4.55;;;;;;;;;;5058121;28;20210;-84
2022/04/10 01:04:39;;;;;;;7.95;6.18;;;;;;;;;;5070453;28;20194;-85
2022/04/10 01:07:06;;;;;;;5.30;4.68;;;;;;;;;;5078874;28;20218;-86
2022/04/10 01:09:33;;;;;;;6.40;5.97;;;;;;;;;;5059653;28;20186;-85
2022/04/10 01:11:59;;;;;;;5.72;5.43;;;;;;;;;;5073082;28;20197;-84
2022/04/10 01:14:26;;;;;;;9.00;5.47;;;;;;;;;;5054708;28;20170;-84
2022/04/10 01:16:52;;;;;;;5.90;4.57;;;;;;;;;;5058617;28;20549;-83
2022/04/10 01:19:19;;;;;;;5.47;5.07;;;;;;;;;;5077737;28;20259;-84
2022/04/10 01:21:46;;;;;;;9.85;5.15;;;;;;;;;;5064799;28;20209;-84
2022/04/10 01:24:13;;;;;;;9.77;5.60;;;;;;;;;;5074097;28;20189;-84
2022/04/10 01:26:39;;;;;;;8.00;5.90;;;;;;;;;;5069129;28;20668;-83
2022/04/10 01:29:08;;;;;;;6.63;6.03;;;;;;;;;;5059560;28;20205;-83
2022/04/10 01:31:35;;;;;;;10.57;7.35;;;;;;;;;;5070094;28;20653;-84
2022/04/10 01:34:03;;;;;;;7.85;6.15;;;;;;;;;;5057180;28;20189;-84
2022/04/10 01:36:31;;;;;;;11.38;6.97;;;;;;;;;;5053500;28;20683;-84
2022/04/10 01:39:02;;;;;;;5.70;5.38;;;;;;;;;;5049572;28;20179;-84
2022/04/10 01:41:28;;;;;;;7.00;6.40;;;;;;;;;;5057909;28;20224;-84
2022/04/10 01:43:55;;;;;;;6.28;5.82;;;;;;;;;;5061715;28;20213;-83
2022/04/10 01:46:22;;;;;;;8.20;5.50;;;;;;;;;;5057618;28;20301;-84
2022/04/10 01:48:48;;;;;;;7.00;6.30;;;;;;;;;;5080967;28;20193;-84
2022/04/10 01:51:15;;;;;;;7.60;6.30;;;;;;;;;;5064046;28;20186;-83
2022/04/10 01:53:41;;;;;;;6.10;5.70;;;;;;;;;;5054351;28;20762;-82
2022/04/10 01:56:08;;;;;;;8.35;7.25;;;;;;;;;;5053425;28;20197;-85
2022/04/10 01:58:38;;;;;;;9.32;6.40;;;;;;;;;;5048244;28;20501;-83
2022/04/10 02:01:05;;;;;;;6.93;6.30;;;;;;;;;;5056690;28;20250;-85
2022/04/10 02:03:32;;;;;;;7.15;6.75;;;;;;;;;;5057498;28;20205;-85
2022/04/10 02:06:00;;;;;;;10.52;5.68;;;;;;;;;;5064821;28;20197;-83
2022/04/10 02:08:26;;;;;;;9.27;5.72;;;;;;;;;;5072417;28;20245;-84
2022/04/10 02:10:52;;;;;;;9.95;6.95;;;;;;;;;;5065805;28;20198;-84
2022/04/10 02:13:19;;;;;;;7.47;5.88;;;;;;;;;;5073610;28;20191;-85
2022/04/10 02:15:45;;;;;;;7.38;6.05;;;;;;;;;;5049661;28;20190;-85
2022/04/10 02:18:11;;;;;;;12.30;7.67;;;;;;;;;;5062468;28;20190;-84
2022/04/10 02:20:37;;;;;;;10.70;6.73;;;;;;;;;;5066010;28;20823;-84
2022/04/10 02:23:03;;;;;;;6.87;6.27;;;;;;;;;;5085487;28;20479;-84
2022/04/10 02:25:29;;;;;;;11.20;5.55;;;;;;;;;;5062532;28;20960;-84
2022/04/10 02:27:55;;;;;;;6.23;5.83;;;;;;;;;;5060343;28;20186;-84
2022/04/10 02:30:22;;;;;;;8.50;7.05;;;;;;;;;;5053610;28;20429;-84
2022/04/10 02:32:48;;;;;;;8.13;6.38;;;;;;;;;;5056143;28;20177;-84
2022/04/10 02:35:14;;;;;;;11.30;6.20;;;;;;;;;;5055531;28;20277;-85
2022/04/10 02:37:40;;;;;;;8.68;7.78;;;;;;;;;;5065179;28;20551;-84
2022/04/10 02:40:07;;;;;;;6.63;6.15;;;;;;;;;;5076274;28;20190;-85
2022/04/10 02:42:36;;;;;;;9.35;7.60;;;;;;;;;;5058784;28;20214;-84
2022/04/10 02:45:04;;;;;;;10.27;7.60;;;;;;;;;;5061810;28;20439;-85
2022/04/10 02:47:30;;;;;;;10.23;7.03;;;;;;;;;;5076158;28;20243;-84
2022/04/10 02:49:56;;;;;;;9.20;7.90;;;;;;;;;;5048027;28;20184;-84
2022/04/10 02:52:25;;;;;;;11.75;6.93;;;;;;;;;;5060747;28;20201;-84
2022/04/10 02:54:51;;;;;;;7.95;7.25;;;;;;;;;;5066919;28;20243;-84
2022/04/10 02:57:17;;;;;;;9.43;8.17;;;;;;;;;;5054163;28;20201;-84
2022/04/10 02:59:43;;;;;;;8.80;8.10;;;;;;;;;;5062037;28;20781;-85
2022/04/10 03:02:09;;;;;;;11.87;7.13;;;;;;;;;;5054093;28;20507;-84
2022/04/10 03:04:35;;;;;;;11.37;7.83;;;;;;;;;;5082946;28;21025;-85
2022/04/10 03:07:02;;;;;;;7.68;6.97;;;;;;;;;;5087151;28;20827;-84
2022/04/10 03:09:27;;;;;;;8.57;7.50;;;;;;;;;;5071543;28;20264;-83
2022/04/10 03:11:54;;;;;;;9.90;6.50;;;;;;;;;;5050118;28;20273;-84
2022/04/10 03:14:20;;;;;;;7.35;6.85;;;;;;;;;;5054284;28;20428;-84
2022/04/10 03:16:46;;;;;;;9.25;7.43;;;;;;;;;;5089726;28;20554;-84
2022/04/10 03:19:12;;;;;;;9.45;7.22;;;;;;;;;;5063967;28;20196;-83
2022/04/10 03:21:38;;;;;;;8.25;7.47;;;;;;;;;;5051465;28;20209;-85
2022/04/10 03:24:04;;;;;;;10.60;7.50;;;;;;;;;;5055343;28;20667;-85
2022/04/10 03:26:30;;;;;;;12.20;8.52;;;;;;;;;;5076491;28;20870;-86
2022/04/10 03:28:57;;;;;;;10.85;7.30;;;;;;;;;;5067472;28;20219;-83
2022/04/10 03:31:23;;;;;;;12.18;7.40;;;;;;;;;;5056226;28;20292;-83
2022/04/10 03:33:49;;;;;;;9.18;7.15;;;;;;;;;;5061964;28;20186;-81
2022/04/10 03:36:15;;;;;;;9.00;8.15;;;;;;;;;;5064417;28;20189;-84
2022/04/10 03:38:42;;;;;;;15.30;8.40;;;;;;;;;;5081671;28;20604;-83
2022/04/10 03:41:08;;;;;;;8.95;8.10;;;;;;;;;;5087481;28;20603;-85
2022/04/10 03:43:34;;;;;;;8.70;7.80;;;;;;;;;;5062324;28;20193;-85
2022/04/10 03:46:00;;;;;;;11.50;8.38;;;;;;;;;;5066677;28;20504;-85
2022/04/10 03:48:26;;;;;;;11.77;8.90;;;;;;;;;;5057463;28;20190;-84
2022/04/10 03:50:52;;;;;;;10.88;8.50;;;;;;;;;;5068566;28;20268;-84
2022/04/10 03:53:18;;;;;;;9.25;8.40;;;;;;;;;;5080539;28;20316;-84
2022/04/10 03:55:45;;;;;;;10.10;9.02;;;;;;;;;;5060610;28;20174;-84
2022/04/10 03:58:11;;;;;;;18.20;9.30;;;;;;;;;;5050434;28;20602;-85
2022/04/10 04:00:37;;;;;;;9.32;7.47;;;;;;;;;;5057950;28;20536;-84
2022/04/10 04:03:03;;;;;;;9.93;8.13;;;;;;;;;;5079100;28;20711;-84
2022/04/10 04:05:29;;;;;;;10.15;9.13;;;;;;;;;;5067653;28;20417;-84
2022/04/10 04:07:56;;;;;;;13.00;9.35;;;;;;;;;;5061054;28;20225;-85
2022/04/10 04:10:22;;;;;;;10.60;9.50;;;;;;;;;;5050921;28;20557;-83
2022/04/10 04:12:48;;;;;;;13.07;8.40;;;;;;;;;;5078640;28;20213;-84
2022/04/10 04:15:14;;;;;;;9.57;8.77;;;;;;;;;;4710451;28;10000245;-84
2022/04/10 04:17:40;;;;;;;11.00;8.25;;;;;;;;;;5063581;28;20296;-84
2022/04/10 04:20:07;;;;;;;10.10;9.20;;;;;;;;;;5054396;28;20547;-83
2022/04/10 04:22:34;;;;;;;14.57;9.85;;;;;;;;;;5081952;28;20214;-84
2022/04/10 04:25:00;;;;;;;11.70;10.35;;;;;;;;;;5081718;28;20235;-85
2022/04/10 04:27:26;;;;;;;13.07;8.85;;;;;;;;;;5060879;28;20186;-84
2022/04/10 04:29:52;;;;;;;11.23;10.23;;;;;;;;;;5058709;28;20419;-84
2022/04/10 04:32:19;;;;;;;11.55;9.00;;;;;;;;;;5061247;28;20193;-84
2022/04/10 04:34:45;;;;;;;16.05;10.32;;;;;;;;;;5055441;28;20190;-84
2022/04/10 04:37:11;;;;;;;11.70;9.10;;;;;;;;;;5078437;28;20244;-85
2022/04/10 04:39:37;;;;;;;11.55;9.13;;;;;;;;;;5059216;28;20433;-84
2022/04/10 04:42:03;;;;;;;13.80;9.67;;;;;;;;;;5056165;28;20283;-83
2022/04/10 04:44:32;;;;;;;11.00;9.70;;;;;;;;;;5058729;28;20419;-84
2022/04/10 04:46:58;;;;;;;10.30;9.38;;;;;;;;;;5077071;28;20186;-84
2022/04/10 04:49:25;;;;;;;18.83;9.85;;;;;;;;;;5064483;28;20654;-84
2022/04/10 04:51:51;;;;;;;16.42;9.77;;;;;;;;;;5059307;28;20179;-83
2022/04/10 04:54:17;;;;;;;14.30;9.37;;;;;;;;;;5073557;28;20908;-84
2022/04/10 04:56:43;;;;;;;15.57;9.75;;;;;;;;;;5058574;28;20425;-84
2022/04/10 04:59:09;;;;;;;14.90;9.35;;;;;;;;;;5075452;28;20195;-84
2022/04/10 05:01:35;;;;;;;13.45;9.82;;;;;;;;;;5087808;28;20213;-84
2022/04/10 05:04:01;;;;;;;15.30;8.95;;;;;;;;;;5056414;28;20196;-86
2022/04/10 05:06:27;;;;;;;13.27;9.88;;;;;;;;;;5051397;28;20383;-86
2022/04/10 05:08:56;;;;;;;14.98;9.38;;;;;;;;;;5077449;28;20225;-85
2022/04/10 05:11:22;;;;;;;16.73;10.75;;;;;;;;;;5076724;28;20308;-83
2022/04/10 05:13:48;;;;;;;16.90;9.30;;;;;;;;;;5052396;28;20742;-84
2022/04/10 05:16:14;;;;;;;10.73;8.65;;;;;;;;;;5077415;28;20420;-83
2022/04/10 05:18:40;;;;;;;14.63;9.90;;;;;;;;;;5059445;28;20570;-85
2022/04/10 05:21:07;;;;;;;10.53;8.97;;;;;;;;;;5060917;28;20412;-84
2022/04/10 05:23:33;;;;;;;10.38;9.30;;;;;;;;;;5072774;28;20429;-85
2022/04/10 05:25:59;;;;;;;11.93;9.07;;;;;;;;;;5057320;28;20567;-85
2022/04/10 05:28:26;;;;;;;10.43;9.35;;;;;;;;;;5062603;28;20194;-85
2022/04/10 05:30:52;;;;;;;10.65;9.73;;;;;;;;;;5062361;28;20655;-84
2022/04/10 05:33:18;;;;;;;15.07;9.35;;;;;;;;;;5078033;28;20178;-83
2022/04/10 05:35:44;;;;;;;10.13;9.13;;;;;;;;;;5074075;28;20182;-83
2022/04/10 05:38:10;;;;;;;14.10;10.45;;;;;;;;;;5058477;28;20182;-84
2022/04/10 05:40:36;;;;;;;15.82;9.75;;;;;;;;;;5075703;28;20528;-83
2022/04/10 05:43:02;;;;;;;12.70;9.90;;;;;;;;;;5057051;28;20213;-84
2022/04/10 05:45:28;;;;;;;9.88;9.00;;;;;;;;;;5056835;28;20421;-83
2022/04/10 05:47:54;;;;;;;10.23;8.93;;;;;;;;;;5077769;28;20613;-83
2022/04/10 05:50:20;;;;;;;13.50;8.20;;;;;;;;;;5054134;28;20184;-85
2022/04/10 05:52:48;;;;;;;10.23;7.78;;;;;;;;;;5077417;28;20671;-84
2022/04/10 05:55:17;;;;;;;8.77;7.22;;;;;;;;;;5058076;28;20194;-84
2022/04/10 05:57:43;;;;;;;10.32;6.55;;;;;;;;;;5058468;28;20170;-85
2022/04/10 06:00:11;;;;;;;6.82;6.22;;;;;;;;;;5052527;28;20190;-85
2022/04/10 06:02:37;;;;;;;8.52;6.05;;;;;;;;;;5056300;28;20201;-85
2022/04/10 06:05:03;;;;;;;6.68;5.95;;;;;;;;;;5074488;28;20227;-85
2022/04/10 06:07:29;;;;;;;6.43;5.93;;;;;;;;;;5075456;28;20665;-84
2022/04/10 06:09:55;;;;;;;7.72;5.68;;;;;;;;;;5051407;28;20680;-85
2022/04/10 06:12:22;;;;;;;9.20;5.90;;;;;;;;;;5070333;28;20220;-85
2022/04/10 06:14:48;;;;;;;7.30;5.65;;;;;;;;;;5059082;28;20942;-85
2022/04/10 06:17:14;;;;;;;6.07;5.50;;;;;;;;;;5084451;28;20194;-84
2022/04/10 06:19:40;;;;;;;8.83;6.47;;;;;;;;;;5049110;28;20490;-85
2022/04/10 06:22:07;;;;;;;6.47;5.87;;;;;;;;;;5057579;28;21057;-85
2022/04/10 06:24:33;;;;;;;6.10;5.80;;;;;;;;;;5066215;28;20436;-85
2022/04/10 06:26:59;;;;;;;6.70;6.00;;;;;;;;;;5068749;28;20477;-85
2022/04/10 06:29:25;;;;;;;7.57;5.53;;;;;;;;;;5066850;28;20787;-85
2022/04/10 06:31:55;;;;;;;11.15;6.15;;;;;;;;;;4847475;28;10000810;-85
2022/04/10 06:34:21;;;;;;;6.03;5.70;;;;;;;;;;5054982;28;20427;-85
2022/04/10 06:36:47;;;;;;;6.40;5.83;;;;;;;;;;5078759;28;20520;-84
2022/04/10 06:39:13;;;;;;;7.77;6.77;;;;;;;;;;5072046;28;20459;-85
2022/04/10 06:41:39;;;;;;;7.37;6.67;;;;;;;;;;5065439;28;21064;-85
2022/04/10 06:44:05;;;;;;;8.30;6.20;;;;;;;;;;5071849;28;20424;-83
2022/04/10 06:46:31;;;;;;;7.00;6.50;;;;;;;;;;5062286;28;20464;-85
2022/04/10 06:48:58;;;;;;;6.43;5.90;;;;;;;;;;5052189;28;20467;-84
2022/04/10 06:51:24;;;;;;;7.73;7.23;;;;;;;;;;5050362;28;20428;-84
2022/04/10 06:53:50;;;;;;;7.93;7.13;;;;;;;;;;5052168;28;20457;-84
2022/04/10 06:56:16;;;;;;;8.13;6.33;;;;;;;;;;5056174;28;20478;-84
2022/04/10 06:58:42;;;;;;;11.30;6.70;;;;;;;;;;5094185;28;20676;-85
2022/04/10 07:01:08;;;;;;;7.27;6.40;;;;;;;;;;5091140;28;20963;-85
2022/04/10 07:03:34;;;;;;;11.00;6.60;;;;;;;;;;5075397;28;20432;-85
2022/04/10 07:06:01;;;;;;;8.17;6.30;;;;;;;;;;5087927;28;20953;-85
2022/04/10 07:08:27;;;;;;;12.23;7.00;;;;;;;;;;5072619;28;20827;-85
2022/04/10 07:10:53;;;;;;;7.60;7.00;;;;;;;;;;5074556;28;20950;-83
2022/04/10 07:13:19;;;;;;;8.07;7.30;;;;;;;;;;5075517;28;20404;-85
2022/04/10 07:15:46;;;;;;;9.53;7.37;;;;;;;;;;5074464;28;20818;-85
2022/04/10 07:18:12;;;;;;;8.30;7.23;;;;;;;;;;5080612;28;20436;-84
2022/04/10 07:20:38;;;;;;;8.27;7.00;;;;;;;;;;5075468;28;20952;-85
2022/04/10 07:25:49;;;;;;;8.70;7.60;;;;;;;;;;5074114;28;20395;-84
2022/04/10 07:28:15;;;;;;;8.40;7.43;;;;;;;;;;5075366;28;20408;-85
2022/04/10 07:30:41;;;;;;;9.83;7.47;;;;;;;;;;5055873;28;20780;-85
2022/04/10 07:33:08;;;;;;;7.30;6.60;;;;;;;;;;5076025;28;20408;-85
2022/04/10 07:35:34;;;;;;;8.02;7.32;;;;;;;;;;5071642;28;20412;-85
2022/04/10 07:38:00;;;;;;;9.93;7.07;;;;;;;;;;5074595;28;20246;-85
2022/04/10 07:40:26;;;;;;;9.20;5.80;;;;;;;;;;5055080;28;20428;-85
2022/04/10 07:42:53;;;;;;;6.40;5.77;;;;;;;;;;5057905;28;20475;-86
2022/04/10 07:48:04;;;;;;;7.57;6.60;;;;;;;;;;5079854;28;21002;-83
2022/04/10 07:50:30;;;;;;;10.20;6.90;;;;;;;;;;5070327;28;21082;-84
2022/04/10 07:52:56;;;;;;;6.43;5.93;;;;;;;;;;4701915;28;10000678;-85
2022/04/10 07:55:23;;;;;;;12.93;6.80;;;;;;;;;;5086883;28;20461;-86
2022/04/10 07:57:49;;;;;;;6.30;5.90;;;;;;;;;;5067300;28;20439;-85
2022/04/10 08:00:17;;;;;;;5.83;5.43;;;;;;;;;;5087344;28;20772;-86
2022/04/10 08:02:46;;;;;;;5.70;5.20;;;;;;;;;;5062521;28;20865;-86
2022/04/10 08:05:13;;;;;;;5.53;5.10;;;;;;;;;;5068472;28;20397;-85
2022/04/10 08:07:39;;;;;;;6.30;5.90;;;;;;;;;;5068521;28;20459;-85
2022/04/10 08:10:05;;;;;;;6.27;5.63;;;;;;;;;;5086611;28;20408;-85
2022/04/10 08:12:31;;;;;;;6.87;6.10;;;;;;;;;;5087742;28;20781;-85
2022/04/10 08:14:57;;;;;;;6.17;5.57;;;;;;;;;;5070300;28;20416;-83
2022/04/10 08:17:23;;;;;;;5.97;5.50;;;;;;;;;;5061401;28;20444;-83
2022/04/10 08:19:49;;;;;;;6.90;5.10;;;;;;;;;;5063860;28;20469;-84
2022/04/10 08:22:15;;;;;;;8.93;5.43;;;;;;;;;;5063173;28;20472;-83
2022/04/10 08:24:41;;;;;;;7.40;4.93;;;;;;;;;;5062057;28;20421;-82
2022/04/10 08:27:07;;;;;;;5.20;4.80;;;;;;;;;;5048049;28;20939;-83
2022/04/10 08:29:33;;;;;;;4.03;3.40;;;;;;;;;;5066932;28;20909;-84
2022/04/10 08:31:59;;;;;;;6.27;3.80;;;;;;;;;;5064062;28;20442;-84
2022/04/10 08:34:25;;;;;;;5.40;4.90;;;;;;;;;;5050580;28;20420;-84
2022/04/10 08:36:51;;;;;;;5.50;4.40;;;;;;;;;;5082940;28;20427;-85
2022/04/10 08:39:17;;;;;;;3.93;3.73;;;;;;;;;;5067549;28;21145;-84
2022/04/10 08:41:46;;;;;;;6.83;4.30;;;;;;;;;;5086473;28;20468;-86
2022/04/10 08:44:12;;;;;;;3.57;3.27;;;;;;;;;;5046794;28;20976;-85
2022/04/10 08:46:39;;;;;;;4.30;3.90;;;;;;;;;;5055142;28;21064;-84
2022/04/10 08:49:05;;;;;;;3.33;3.10;;;;;;;;;;5049883;28;20460;-85
2022/04/10 08:51:31;;;;;;;7.80;3.43;;;;;;;;;;5066989;28;20465;-84
2022/04/10 08:54:00;;;;;;;3.27;2.57;;;;;;;;;;5059172;28;20447;-84
2022/04/10 08:56:26;;;;;;;2.47;2.00;;;;;;;;;;5073090;28;20511;-84
2022/04/10 08:58:52;;;;;;;3.60;2.80;;;;;;;;;;5071201;28;20497;-85
2022/04/10 09:01:22;;;;;;;3.00;2.80;;;;;;;;;;5073325;28;20811;-84
2022/04/10 09:03:48;;;;;;;3.87;2.70;;;;;;;;;;5086373;23;20492;-91
2022/04/10 09:06:22;;;;;;;3.27;3.00;;;;;;;;;;5066443;28;20427;-90
2022/04/10 09:08:48;;;;;;;4.40;3.93;;;;;;;;;;5058304;28;20555;-89
2022/04/10 09:11:14;;;;;;;2.90;2.70;;;;;;;;;;5080664;28;20887;-90
2022/04/10 09:13:40;;;;;;;3.90;3.27;;;;;;;;;;5073321;28;20436;-89
2022/04/10 09:16:23;;;;;;;3.60;2.97;;;;;;;;;;5060487;28;20442;-90
2022/04/10 09:18:49;;;;;;;4.00;3.73;;;;;;;;;;5064890;28;20451;-90
2022/04/10 09:21:15;;;;;;;3.40;3.10;;;;;;;;;;5069845;28;20443;-90
2022/04/10 09:23:45;;;;;;;2.47;2.30;;;;;;;;;;5087527;28;20483;-90
2022/04/10 09:26:12;;;;;;;3.30;3.20;;;;;;;;;;5060696;28;20421;-89
2022/04/10 09:28:42;;;;;;;2.93;2.70;;;;;;;;;;5053351;28;20877;-89
2022/04/10 09:31:29;;;;;;;3.27;2.70;;;;;;;;;;5057520;28;20543;-86
2022/04/10 09:33:55;;;;;;;3.20;3.00;;;;;;;;;;5062655;28;20561;-89
2022/04/10 09:36:30;;;;;;;3.00;2.73;;;;;;;;;;5067306;28;20440;-89
2022/04/10 09:38:56;;;;;;;4.20;3.50;;;;;;;;;;5096202;28;20444;-89
2022/04/10 09:41:22;;;;;;;3.40;2.60;;;;;;;;;;5074693;28;20463;-90
2022/04/10 09:43:51;;;;;;;3.03;2.17;;;;;;;;;;5084575;28;20490;-89
2022/04/10 09:46:17;;;;;;;3.80;2.50;;;;;;;;;;5073607;28;20824;-87
2022/04/10 09:48:43;;;;;;;2.63;2.43;;;;;;;;;;5068608;28;20446;-89
2022/04/10 09:51:11;;;;;;;3.50;2.63;;;;;;;;;;5070240;28;20473;-88
2022/04/10 09:53:41;;;;;;;3.03;2.57;;;;;;;;;;5055491;28;20432;-90
2022/04/10 09:56:13;;;;;;;3.20;2.90;;;;;;;;;;5062519;28;20429;-89
2022/04/10 09:58:40;;;;;;;5.67;3.30;;;;;;;;;;5069548;28;20424;-88
2022/04/10 10:01:10;;;;;;;3.23;3.00;;;;;;;;;;5089501;28;20560;-85
2022/04/10 10:03:38;;;;;;;2.40;2.20;;;;;;;;;;5088990;28;20848;-89
2022/04/10 10:06:05;;;;;;;3.60;2.63;;;;;;;;;;5063798;28;20444;-89
2022/04/10 10:08:34;;;;;;;2.53;2.43;;;;;;;;;;5065516;28;20444;-90
2022/04/10 10:11:03;;;;;;;2.60;2.50;;;;;;;;;;5058631;28;20516;-88
2022/04/10 10:13:32;;;;;;;2.93;2.50;;;;;;;;;;5065770;28;20436;-90
2022/04/10 10:15:58;;;;;;;3.33;2.60;;;;;;;;;;5064456;28;20420;-89
2022/04/10 10:18:25;;;;;;;5.40;2.77;;;;;;;;;;5062582;28;20432;-89
2022/04/10 10:20:54;;;;;;;3.77;3.10;;;;;;;;;;5052445;28;20477;-87
2022/04/10 10:23:21;;;;;;;3.83;3.40;;;;;;;;;;5087052;28;20467;-87
2022/04/10 10:25:47;;;;;;;3.00;2.80;;;;;;;;;;5062134;28;20440;-89
2022/04/10 10:28:19;;;;;;;2.70;2.50;;;;;;;;;;5072148;28;20929;-89
2022/04/10 10:30:53;;;;;;;3.27;2.50;;;;;;;;;;5062868;28;20444;-86
2022/04/10 10:33:22;;;;;;;1.83;1.73;;;;;;;;;;5085198;28;20412;-87
2022/04/10 10:35:49;;;;;;;5.37;2.50;;;;;;;;;;5068779;28;20435;-87
2022/04/10 10:38:22;;;;;;;2.87;2.77;;;;;;;;;;5068634;28;20416;-87
2022/04/10 10:40:54;;;;;;;3.03;2.77;;;;;;;;;;5092474;28;20432;-87
2022/04/10 10:43:22;;;;;;;2.77;2.67;;;;;;;;;;5088160;28;21106;-89
2022/04/10 10:45:52;;;;;;;1.83;1.73;;;;;;;;;;5081577;28;20424;-87
2022/04/10 10:48:24;;;;;;;2.23;2.10;;;;;;;;;;5078761;28;20926;-88
2022/04/10 10:50:51;;;;;;;3.10;2.80;;;;;;;;;;5053538;28;20428;-88
2022/04/10 10:53:23;;;;;;;2.60;2.47;;;;;;;;;;5079860;28;20547;-88
2022/04/10 10:55:53;;;;;;;4.47;4.17;;;;;;;;;;5066264;28;20466;-88
2022/04/10 10:58:32;;;;;;;2.83;2.17;;;;;;;;;;5065819;28;20981;-88
2022/04/10 11:01:04;;;;;;;1.87;1.70;;;;;;;;;;5072216;28;20420;-88
2022/04/10 11:03:31;;;;;;;2.40;2.20;;;;;;;;;;5081866;28;20840;-88
2022/04/10 11:06:15;;;;;;;3.50;2.03;;;;;;;;;;5069299;28;20412;-87
2022/04/10 11:08:41;;;;;;;3.70;3.50;;;;;;;;;;5064691;28;20439;-88
2022/04/10 11:11:07;;;;;;;2.50;1.83;;;;;;;;;;5095333;28;20448;-87
2022/04/10 11:13:42;;;;;;;3.43;2.20;;;;;;;;;;5063954;28;20440;-88
2022/04/10 11:16:28;;;;;;;3.37;1.83;;;;;;;;;;5071044;28;20462;-88
2022/04/10 11:19:34;;;;;;;1.60;1.50;;;;;;;;;;5091585;28;20434;-88
2022/04/10 11:22:40;;;;;;;2.30;1.60;;;;;;;;;;5084057;28;20533;-86
2022/04/10 11:25:29;;;;;;;2.13;2.00;;;;;;;;;;5077819;28;20543;-86
2022/04/10 11:28:34;;;;;;;2.70;2.23;;;;;;;;;;5078186;28;20508;-88
2022/04/10 11:31:31;;;;;;;7.13;3.27;;;;;;;;;;5078718;28;20521;-88
2022/04/10 11:34:41;;;;;;;2.30;2.20;;;;;;;;;;5081833;28;20412;-88
2022/04/10 11:37:48;;;;;;;1.77;1.67;;;;;;;;;;5083144;28;20800;-89
2022/04/10 11:40:53;;;;;;;2.13;2.13;;;;;;;;;;5082751;28;20450;-89
2022/04/10 11:43:59;;;;;;;5.03;2.37;;;;;;;;;;5079856;28;20483;-88
2022/04/10 11:47:05;;;;;;;1.60;1.50;;;;;;;;;;5078235;28;20427;-89
2022/04/10 11:50:13;;;;;;;2.07;1.97;;;;;;;;;;5070845;28;20542;-88
2022/04/10 11:53:17;;;;;;;1.83;1.73;;;;;;;;;;5078801;28;20451;-87
2022/04/10 11:56:23;;;;;;;1.50;1.50;;;;;;;;;;5079773;28;20424;-88
2022/04/10 11:59:30;;;;;;;1.60;1.50;;;;;;;;;;5091148;28;20416;-90
2022/04/10 12:02:37;;;;;;;1.40;1.30;;;;;;;;;;5101001;28;20493;-93
2022/04/10 12:08:00;;;;;;;5.23;1.77;;;;;;;;;;5070387;23;20581;-86
2022/04/10 12:10:26;;;;;;;1.20;1.10;;;;;;;;;;5049730;28;20414;-86
2022/04/10 12:12:55;;;;;;;1.47;1.47;;;;;;;;;;5048682;28;20460;-87
2022/04/10 12:15:22;;;;;;;1.63;1.50;;;;;;;;;;5049205;28;20452;-89
2022/04/10 12:17:48;;;;;;;1.90;1.37;;;;;;;;;;5044225;28;20423;-89
2022/04/10 12:20:19;;;;;;;2.57;1.43;;;;;;;;;;5044314;28;20410;-87
2022/04/10 12:22:52;;;;;;;1.20;1.20;;;;;;;;;;5053741;28;20532;-91
2022/04/10 12:26:04;;;;;;;3.13;1.20;;;;;;;;;;5089416;23;20477;-89
2022/04/10 12:29:10;;;;;;;3.33;1.60;;;;;;;;;;5076284;28;20439;-89
2022/04/10 12:32:16;;;;;;;1.60;1.50;;;;;;;;;;5043619;28;20467;-87
2022/04/10 12:35:30;;;;;;;1.50;1.33;;;;;;;;;;5040740;28;20457;-87
2022/04/10 12:38:35;;;;;;;1.47;1.47;;;;;;;;;;5040421;28;20476;-88
2022/04/10 12:41:51;;;;;;;2.70;1.17;;;;;;;;;;5042914;28;20414;-88
2022/04/10 12:44:57;;;;;;;1.30;1.30;;;;;;;;;;5037413;28;20695;-88
2022/04/10 12:48:03;;;;;;;1.80;1.63;;;;;;;;;;5044972;28;20416;-89
2022/04/10 12:51:05;;;;;;;2.10;1.63;;;;;;;;;;5039225;28;20638;-88
2022/04/10 12:54:10;;;;;;;1.63;1.53;;;;;;;;;;5046436;28;20402;-86
2022/04/10 12:57:16;;;;;;;1.20;1.20;;;;;;;;;;5035481;28;20421;-86
2022/04/10 13:00:22;;;;;;;2.00;1.80;;;;;;;;;;5039908;28;20504;-86
2022/04/10 13:03:37;;;;;;;1.10;1.10;;;;;;;;;;5040088;28;20467;-86
2022/04/10 13:06:43;;;;;;;1.07;1.00;;;;;;;;;;5042766;28;20417;-87
2022/04/10 13:09:51;;;;;;;1.37;0.90;;;;;;;;;;5033558;28;20509;-86
2022/04/10 13:12:55;;;;;;;0.87;0.87;;;;;;;;;;5044121;28;20434;-85
2022/04/10 13:16:01;;;;;;;1.07;1.07;;;;;;;;;;5043027;28;20816;-86
2022/04/10 13:19:07;;;;;;;1.10;1.10;;;;;;;;;;5042459;28;20851;-87
2022/04/10 13:22:17;;;;;;;2.00;1.20;;;;;;;;;;5044363;28;20546;-86
2022/04/10 13:25:32;;;;;;;1.13;1.10;;;;;;;;;;5042816;28;20446;-87
2022/04/10 13:28:33;;;;;;;1.10;1.00;;;;;;;;;;5048857;28;20422;-88
2022/04/10 13:31:41;;;;;;;1.70;1.70;;;;;;;;;;5049921;28;20434;-87
2022/04/10 13:34:47;;;;;;;1.73;1.63;;;;;;;;;;5042938;28;20479;-87
2022/04/10 13:37:52;;;;;;;2.00;1.33;;;;;;;;;;5042953;28;20422;-87
2022/04/10 13:40:58;;;;;;;1.30;1.30;;;;;;;;;;5042435;28;20579;-87
2022/04/10 13:44:04;;;;;;;1.13;1.13;;;;;;;;;;5040345;28;20963;-88
2022/04/10 13:47:10;;;;;;;1.57;1.57;;;;;;;;;;5043376;28;20782;-89
2022/04/10 13:50:17;;;;;;;1.50;1.50;;;;;;;;;;5044581;28;20433;-90
2022/04/10 13:53:22;;;;;;;1.50;1.50;;;;;;;;;;5042997;28;20423;-89
2022/04/10 13:56:28;;;;;;;1.30;1.30;;;;;;;;;;5046391;28;20940;-92
2022/04/10 13:59:37;;;;;;;1.20;1.20;;;;;;;;;;5045963;28;20426;-89
2022/04/10 14:02:39;;;;;;;1.47;1.27;;;;;;;;;;5045484;28;20568;-88
2022/04/10 14:05:45;;;;;;;1.47;1.37;;;;;;;;;;5042497;28;20431;-89
2022/04/10 14:08:51;;;;;;;1.10;1.10;;;;;;;;;;5045164;28;20442;-89
2022/04/10 14:11:57;;;;;;;1.13;1.13;;;;;;;;;;5053026;28;20406;-88
2022/04/10 14:15:07;;;;;;;1.17;1.17;;;;;;;;;;5045650;28;20462;-90
2022/04/10 14:18:12;;;;;;;1.10;1.10;;;;;;;;;;5043442;28;20410;-88
2022/04/10 14:21:18;;;;;;;1.23;1.23;;;;;;;;;;5048363;28;20440;-88
2022/04/10 14:24:25;;;;;;;1.30;1.30;;;;;;;;;;5037519;28;20481;-89
2022/04/10 14:27:34;;;;;;;2.20;1.30;;;;;;;;;;5039695;28;20808;-88
2022/04/10 14:30:40;;;;;;;1.80;1.60;;;;;;;;;;5035301;28;20556;-89
2022/04/10 14:33:46;;;;;;;2.10;2.00;;;;;;;;;;5051932;28;20468;-88
2022/04/10 14:36:55;;;;;;;1.70;1.60;;;;;;;;;;5032417;28;20422;-89
2022/04/10 14:40:01;;;;;;;4.03;1.20;;;;;;;;;;5033762;28;20877;-88
2022/04/10 14:43:21;;;;;;;4.70;1.90;;;;;;;;;;5053720;28;20867;-88
2022/04/10 14:46:30;;;;;;;1.40;1.23;;;;;;;;;;5042722;28;21021;-90
2022/04/10 14:49:36;;;;;;;2.23;1.60;;;;;;;;;;5044110;28;20857;-88
2022/04/10 14:52:44;;;;;;;1.10;1.10;;;;;;;;;;5037322;28;20452;-88
2022/04/10 14:55:47;;;;;;;1.93;1.93;;;;;;;;;;5044575;28;20464;-88
2022/04/10 14:58:58;;;;;;;1.70;1.03;;;;;;;;;;5038046;28;20808;-89
2022/04/10 15:02:01;;;;;;;1.10;1.10;;;;;;;;;;5055739;28;20453;-88
2022/04/10 15:04:46;;;;;;;1.70;1.60;;;;;;;;;;5068846;23;20492;-84
2022/04/10 15:07:13;;;;;;;2.30;1.20;;;;;;;;;;5061526;28;20424;-85
2022/04/10 15:09:40;;;;;;;2.10;1.40;;;;;;;;;;5062618;28;20453;-84
2022/04/10 15:12:07;;;;;;;1.80;1.80;;;;;;;;;;5063825;28;20938;-84
2022/04/10 15:14:34;;;;;;;1.00;1.00;;;;;;;;;;5060496;28;20436;-83
2022/04/10 15:17:01;;;;;;;2.20;2.00;;;;;;;;;;5065325;28;20409;-82
2022/04/10 15:19:27;;;;;;;1.47;1.37;;;;;;;;;;5060426;28;21083;-84
2022/04/10 15:21:53;;;;;;;3.17;1.20;;;;;;;;;;5059014;28;20498;-84
2022/04/10 15:24:20;;;;;;;1.20;1.20;;;;;;;;;;5060821;28;20809;-84
2022/04/10 15:26:46;;;;;;;1.60;1.60;;;;;;;;;;4702414;28;9999747;-83
2022/04/10 15:29:13;;;;;;;2.20;1.50;;;;;;;;;;5062994;28;20512;-85
2022/04/10 15:31:39;;;;;;;0.90;0.90;;;;;;;;;;5050666;28;20707;-83